sensor_id;sensor_type;location;lat;lon;timestamp;P1;durP1;ratioP1;P2;durP2;ratioP2
61393;SDS011;48555;50.952;-0.120;2023-06-22T00:00:42;13.13;;;8.85;;
61393;SDS011;48555;50.952;-0.120;2023-06-22T00:03:08;14.23;;;9.20;;
61393;SDS011;48555;50.952;-0.120;2023-06-22T00:05:34;13.48;;;8.38;;
61393;SDS011;48555;50.952;-0.120;2023-06-22T00:08:02;12.45;;;8.95;;
61393;SDS011;48555;50.952;-0.120;2023-06-22T00:10:28;12.15;;;8.73;;
61393;SDS011;48555;50.952;-0.120;2023-06-22T00:12:54;15.35;;;8.68;;
61393;SDS011;48555;50.952;-0.120;2023-06-22T00:15:19;11.82;;;8.35;;
61393;SDS011;48555;50.952;-0.120;2023-06-22T00:17:45;13.43;;;8.82;;
61393;SDS011;48555;50.952;-0.120;2023-06-22T00:20:10;15.52;;;10.20;;
61393;SDS011;48555;50.952;-0.120;2023-06-22T00:22:36;16.10;;;9.73;;
61393;SDS011;48555;50.952;-0.120;2023-06-22T00:25:05;14.85;;;9.32;;
61393;SDS011;48555;50.952;-0.120;2023-06-22T00:27:34;17.42;;;11.20;;
61393;SDS011;48555;50.952;-0.120;2023-06-22T00:30:00;17.17;;;11.43;;
61393;SDS011;48555;50.952;-0.120;2023-06-22T00:32:25;18.98;;;12.55;;
61393;SDS011;48555;50.952;-0.120;2023-06-22T00:34:50;17.60;;;11.98;;
61393;SDS011;48555;50.952;-0.120;2023-06-22T00:37:16;16.38;;;11.68;;
61393;SDS011;48555;50.952;-0.120;2023-06-22T00:39:42;17.85;;;11.82;;
61393;SDS011;48555;50.952;-0.120;2023-06-22T00:42:08;18.38;;;12.00;;
61393;SDS011;48555;50.952;-0.120;2023-06-22T00:44:33;21.58;;;13.20;;
61393;SDS011;48555;50.952;-0.120;2023-06-22T00:46:59;19.88;;;12.95;;
61393;SDS011;48555;50.952;-0.120;2023-06-22T00:49:25;19.02;;;12.38;;
61393;SDS011;48555;50.952;-0.120;2023-06-22T00:51:50;18.75;;;12.25;;
61393;SDS011;48555;50.952;-0.120;2023-06-22T00:54:16;19.70;;;12.05;;
61393;SDS011;48555;50.952;-0.120;2023-06-22T00:56:55;19.13;;;11.15;;
61393;SDS011;48555;50.952;-0.120;2023-06-22T00:59:22;19.13;;;10.93;;
61393;SDS011;48555;50.952;-0.120;2023-06-22T01:01:48;14.75;;;10.10;;
61393;SDS011;48555;50.952;-0.120;2023-06-22T01:04:14;19.23;;;11.98;;
61393;SDS011;48555;50.952;-0.120;2023-06-22T01:07:04;18.85;;;12.10;;
61393;SDS011;48555;50.952;-0.120;2023-06-22T01:09:37;23.23;;;12.95;;
61393;SDS011;48555;50.952;-0.120;2023-06-22T01:12:11;18.02;;;10.60;;
61393;SDS011;48555;50.952;-0.120;2023-06-22T01:14:41;20.13;;;11.95;;
61393;SDS011;48555;50.952;-0.120;2023-06-22T01:17:13;19.75;;;12.70;;
61393;SDS011;48555;50.952;-0.120;2023-06-22T01:22:21;25.70;;;13.88;;
61393;SDS011;48555;50.952;-0.120;2023-06-22T01:25:00;27.60;;;13.50;;
61393;SDS011;48555;50.952;-0.120;2023-06-22T01:32:35;22.77;;;12.20;;
61393;SDS011;48555;50.952;-0.120;2023-06-22T01:35:03;20.90;;;12.07;;
61393;SDS011;48555;50.952;-0.120;2023-06-22T01:37:32;29.65;;;13.23;;
61393;SDS011;48555;50.952;-0.120;2023-06-22T01:39:59;29.90;;;12.95;;
61393;SDS011;48555;50.952;-0.120;2023-06-22T01:42:25;24.67;;;12.95;;
61393;SDS011;48555;50.952;-0.120;2023-06-22T01:44:52;22.35;;;12.07;;
61393;SDS011;48555;50.952;-0.120;2023-06-22T01:47:18;29.23;;;11.18;;
61393;SDS011;48555;50.952;-0.120;2023-06-22T01:49:45;26.05;;;11.50;;
61393;SDS011;48555;50.952;-0.120;2023-06-22T01:52:11;23.05;;;10.55;;
61393;SDS011;48555;50.952;-0.120;2023-06-22T01:54:37;36.58;;;11.68;;
61393;SDS011;48555;50.952;-0.120;2023-06-22T01:57:03;25.42;;;11.15;;
61393;SDS011;48555;50.952;-0.120;2023-06-22T01:59:32;27.52;;;11.10;;
61393;SDS011;48555;50.952;-0.120;2023-06-22T02:02:06;33.03;;;10.30;;
61393;SDS011;48555;50.952;-0.120;2023-06-22T02:04:34;31.08;;;10.57;;
61393;SDS011;48555;50.952;-0.120;2023-06-22T02:07:13;19.05;;;11.45;;
61393;SDS011;48555;50.952;-0.120;2023-06-22T02:09:43;27.88;;;10.63;;
61393;SDS011;48555;50.952;-0.120;2023-06-22T02:12:11;21.63;;;11.98;;
61393;SDS011;48555;50.952;-0.120;2023-06-22T02:14:38;26.25;;;12.32;;
61393;SDS011;48555;50.952;-0.120;2023-06-22T02:17:04;26.48;;;11.57;;
61393;SDS011;48555;50.952;-0.120;2023-06-22T02:19:32;22.27;;;11.75;;
61393;SDS011;48555;50.952;-0.120;2023-06-22T02:22:01;31.40;;;11.73;;
61393;SDS011;48555;50.952;-0.120;2023-06-22T02:24:27;27.25;;;11.30;;
61393;SDS011;48555;50.952;-0.120;2023-06-22T02:26:55;21.17;;;11.13;;
61393;SDS011;48555;50.952;-0.120;2023-06-22T02:29:22;57.90;;;12.45;;
61393;SDS011;48555;50.952;-0.120;2023-06-22T02:31:47;19.92;;;11.20;;
61393;SDS011;48555;50.952;-0.120;2023-06-22T02:34:13;27.05;;;11.38;;
61393;SDS011;48555;50.952;-0.120;2023-06-22T02:36:43;24.10;;;12.10;;
61393;SDS011;48555;50.952;-0.120;2023-06-22T02:39:15;71.28;;;13.10;;
61393;SDS011;48555;50.952;-0.120;2023-06-22T02:41:50;32.78;;;11.02;;
61393;SDS011;48555;50.952;-0.120;2023-06-22T02:44:17;29.08;;;12.07;;
61393;SDS011;48555;50.952;-0.120;2023-06-22T02:46:43;25.58;;;11.40;;
61393;SDS011;48555;50.952;-0.120;2023-06-22T02:49:09;24.83;;;11.30;;
61393;SDS011;48555;50.952;-0.120;2023-06-22T02:51:34;23.88;;;11.95;;
61393;SDS011;48555;50.952;-0.120;2023-06-22T02:54:00;29.67;;;11.38;;
61393;SDS011;48555;50.952;-0.120;2023-06-22T02:56:27;22.85;;;10.23;;
61393;SDS011;48555;50.952;-0.120;2023-06-22T02:58:53;28.75;;;10.43;;
61393;SDS011;48555;50.952;-0.120;2023-06-22T03:01:18;20.80;;;10.25;;
61393;SDS011;48555;50.952;-0.120;2023-06-22T03:03:48;33.70;;;9.95;;
61393;SDS011;48555;50.952;-0.120;2023-06-22T03:06:14;30.88;;;9.88;;
61393;SDS011;48555;50.952;-0.120;2023-06-22T03:08:39;29.35;;;10.35;;
61393;SDS011;48555;50.952;-0.120;2023-06-22T03:11:06;18.02;;;9.95;;
61393;SDS011;48555;50.952;-0.120;2023-06-22T03:13:32;29.15;;;9.25;;
61393;SDS011;48555;50.952;-0.120;2023-06-22T03:15:58;33.83;;;9.27;;
61393;SDS011;48555;50.952;-0.120;2023-06-22T03:18:23;44.40;;;9.77;;
61393;SDS011;48555;50.952;-0.120;2023-06-22T03:20:48;38.75;;;10.35;;
61393;SDS011;48555;50.952;-0.120;2023-06-22T03:23:14;37.22;;;9.07;;
61393;SDS011;48555;50.952;-0.120;2023-06-22T03:25:40;22.70;;;11.30;;
61393;SDS011;48555;50.952;-0.120;2023-06-22T03:28:06;23.08;;;10.40;;
61393;SDS011;48555;50.952;-0.120;2023-06-22T03:30:31;19.48;;;10.90;;
61393;SDS011;48555;50.952;-0.120;2023-06-22T03:32:56;15.73;;;8.45;;
61393;SDS011;48555;50.952;-0.120;2023-06-22T03:35:22;18.60;;;8.13;;
61393;SDS011;48555;50.952;-0.120;2023-06-22T03:37:47;18.15;;;7.82;;
61393;SDS011;48555;50.952;-0.120;2023-06-22T03:40:13;21.75;;;7.25;;
61393;SDS011;48555;50.952;-0.120;2023-06-22T03:42:38;14.13;;;6.88;;
61393;SDS011;48555;50.952;-0.120;2023-06-22T03:45:03;15.05;;;8.00;;
61393;SDS011;48555;50.952;-0.120;2023-06-22T03:47:29;14.25;;;7.70;;
61393;SDS011;48555;50.952;-0.120;2023-06-22T03:49:54;13.45;;;7.20;;
61393;SDS011;48555;50.952;-0.120;2023-06-22T03:52:21;16.95;;;8.13;;
61393;SDS011;48555;50.952;-0.120;2023-06-22T03:54:47;18.58;;;8.63;;
61393;SDS011;48555;50.952;-0.120;2023-06-22T03:57:12;25.40;;;8.90;;
61393;SDS011;48555;50.952;-0.120;2023-06-22T03:59:38;21.20;;;8.43;;
61393;SDS011;48555;50.952;-0.120;2023-06-22T04:02:03;27.77;;;9.50;;
61393;SDS011;48555;50.952;-0.120;2023-06-22T04:04:29;18.55;;;9.20;;
61393;SDS011;48555;50.952;-0.120;2023-06-22T04:06:54;20.10;;;9.25;;
61393;SDS011;48555;50.952;-0.120;2023-06-22T04:09:19;19.42;;;9.40;;
61393;SDS011;48555;50.952;-0.120;2023-06-22T04:11:46;17.05;;;9.38;;
61393;SDS011;48555;50.952;-0.120;2023-06-22T04:14:11;17.98;;;9.90;;
61393;SDS011;48555;50.952;-0.120;2023-06-22T04:16:37;24.15;;;10.98;;
61393;SDS011;48555;50.952;-0.120;2023-06-22T04:19:02;27.58;;;9.88;;
61393;SDS011;48555;50.952;-0.120;2023-06-22T04:21:27;19.70;;;9.07;;
61393;SDS011;48555;50.952;-0.120;2023-06-22T04:23:53;21.90;;;10.55;;
61393;SDS011;48555;50.952;-0.120;2023-06-22T04:26:18;16.98;;;9.07;;
61393;SDS011;48555;50.952;-0.120;2023-06-22T04:28:45;20.52;;;10.02;;
61393;SDS011;48555;50.952;-0.120;2023-06-22T04:31:16;21.50;;;9.18;;
61393;SDS011;48555;50.952;-0.120;2023-06-22T04:33:43;17.98;;;9.63;;
61393;SDS011;48555;50.952;-0.120;2023-06-22T04:36:08;18.45;;;9.43;;
61393;SDS011;48555;50.952;-0.120;2023-06-22T04:38:34;19.88;;;9.45;;
61393;SDS011;48555;50.952;-0.120;2023-06-22T04:40:59;19.92;;;9.88;;
61393;SDS011;48555;50.952;-0.120;2023-06-22T04:43:27;16.52;;;9.07;;
61393;SDS011;48555;50.952;-0.120;2023-06-22T04:45:55;16.23;;;8.90;;
61393;SDS011;48555;50.952;-0.120;2023-06-22T04:48:21;16.45;;;9.10;;
61393;SDS011;48555;50.952;-0.120;2023-06-22T04:50:47;17.25;;;8.85;;
61393;SDS011;48555;50.952;-0.120;2023-06-22T04:53:12;16.52;;;8.93;;
61393;SDS011;48555;50.952;-0.120;2023-06-22T04:55:38;20.67;;;9.57;;
61393;SDS011;48555;50.952;-0.120;2023-06-22T04:58:06;19.88;;;9.77;;
61393;SDS011;48555;50.952;-0.120;2023-06-22T05:00:32;16.10;;;9.05;;
61393;SDS011;48555;50.952;-0.120;2023-06-22T05:02:57;15.75;;;9.55;;
61393;SDS011;48555;50.952;-0.120;2023-06-22T05:05:28;15.35;;;9.15;;
61393;SDS011;48555;50.952;-0.120;2023-06-22T05:07:53;16.80;;;9.35;;
61393;SDS011;48555;50.952;-0.120;2023-06-22T05:12:50;17.92;;;8.75;;
61393;SDS011;48555;50.952;-0.120;2023-06-22T05:15:15;14.77;;;8.68;;
61393;SDS011;48555;50.952;-0.120;2023-06-22T05:17:40;15.13;;;8.50;;
61393;SDS011;48555;50.952;-0.120;2023-06-22T05:20:10;15.80;;;8.50;;
61393;SDS011;48555;50.952;-0.120;2023-06-22T05:22:36;15.23;;;8.98;;
61393;SDS011;48555;50.952;-0.120;2023-06-22T05:25:01;13.30;;;8.90;;
61393;SDS011;48555;50.952;-0.120;2023-06-22T05:27:26;13.23;;;7.78;;
61393;SDS011;48555;50.952;-0.120;2023-06-22T05:29:52;10.90;;;6.88;;
61393;SDS011;48555;50.952;-0.120;2023-06-22T05:32:17;12.95;;;7.53;;
61393;SDS011;48555;50.952;-0.120;2023-06-22T05:34:43;13.15;;;7.40;;
61393;SDS011;48555;50.952;-0.120;2023-06-22T05:37:09;14.05;;;7.45;;
61393;SDS011;48555;50.952;-0.120;2023-06-22T05:39:34;11.48;;;6.88;;
61393;SDS011;48555;50.952;-0.120;2023-06-22T05:42:02;13.70;;;7.70;;
61393;SDS011;48555;50.952;-0.120;2023-06-22T05:44:29;13.18;;;7.78;;
61393;SDS011;48555;50.952;-0.120;2023-06-22T05:46:54;15.70;;;8.63;;
61393;SDS011;48555;50.952;-0.120;2023-06-22T05:49:20;13.55;;;8.35;;
61393;SDS011;48555;50.952;-0.120;2023-06-22T05:51:47;14.82;;;8.43;;
61393;SDS011;48555;50.952;-0.120;2023-06-22T05:54:12;14.23;;;8.45;;
61393;SDS011;48555;50.952;-0.120;2023-06-22T05:56:38;15.10;;;8.18;;
61393;SDS011;48555;50.952;-0.120;2023-06-22T05:59:04;13.98;;;7.75;;
61393;SDS011;48555;50.952;-0.120;2023-06-22T06:01:29;14.45;;;7.55;;
61393;SDS011;48555;50.952;-0.120;2023-06-22T06:03:59;14.63;;;8.02;;
61393;SDS011;48555;50.952;-0.120;2023-06-22T06:06:24;13.93;;;8.15;;
61393;SDS011;48555;50.952;-0.120;2023-06-22T06:08:53;12.57;;;7.60;;
61393;SDS011;48555;50.952;-0.120;2023-06-22T06:11:18;13.35;;;8.13;;
61393;SDS011;48555;50.952;-0.120;2023-06-22T06:13:44;13.68;;;8.32;;
61393;SDS011;48555;50.952;-0.120;2023-06-22T06:16:10;16.27;;;9.10;;
61393;SDS011;48555;50.952;-0.120;2023-06-22T06:18:35;16.52;;;9.20;;
61393;SDS011;48555;50.952;-0.120;2023-06-22T06:21:02;14.00;;;9.23;;
61393;SDS011;48555;50.952;-0.120;2023-06-22T06:23:28;16.02;;;9.27;;
61393;SDS011;48555;50.952;-0.120;2023-06-22T06:25:53;16.73;;;10.07;;
61393;SDS011;48555;50.952;-0.120;2023-06-22T06:28:18;16.88;;;9.75;;
61393;SDS011;48555;50.952;-0.120;2023-06-22T06:30:44;17.30;;;10.35;;
61393;SDS011;48555;50.952;-0.120;2023-06-22T06:33:09;13.90;;;9.20;;
61393;SDS011;48555;50.952;-0.120;2023-06-22T06:35:34;15.35;;;9.88;;
61393;SDS011;48555;50.952;-0.120;2023-06-22T06:38:00;15.52;;;9.63;;
61393;SDS011;48555;50.952;-0.120;2023-06-22T06:40:25;13.60;;;8.73;;
61393;SDS011;48555;50.952;-0.120;2023-06-22T06:42:50;14.95;;;8.68;;
61393;SDS011;48555;50.952;-0.120;2023-06-22T06:45:19;13.02;;;8.38;;
61393;SDS011;48555;50.952;-0.120;2023-06-22T06:47:47;12.60;;;7.88;;
61393;SDS011;48555;50.952;-0.120;2023-06-22T06:50:13;11.93;;;7.05;;
61393;SDS011;48555;50.952;-0.120;2023-06-22T06:52:39;11.80;;;8.05;;
61393;SDS011;48555;50.952;-0.120;2023-06-22T06:55:04;11.75;;;8.02;;
61393;SDS011;48555;50.952;-0.120;2023-06-22T06:57:34;12.40;;;7.88;;
61393;SDS011;48555;50.952;-0.120;2023-06-22T06:59:59;11.18;;;7.43;;
61393;SDS011;48555;50.952;-0.120;2023-06-22T07:02:25;12.55;;;7.78;;
61393;SDS011;48555;50.952;-0.120;2023-06-22T07:04:52;10.80;;;7.25;;
61393;SDS011;48555;50.952;-0.120;2023-06-22T07:07:20;12.80;;;8.52;;
61393;SDS011;48555;50.952;-0.120;2023-06-22T07:09:45;11.52;;;8.30;;
61393;SDS011;48555;50.952;-0.120;2023-06-22T07:12:11;12.52;;;7.82;;
61393;SDS011;48555;50.952;-0.120;2023-06-22T07:14:36;12.10;;;7.55;;
61393;SDS011;48555;50.952;-0.120;2023-06-22T07:17:02;11.55;;;8.10;;
61393;SDS011;48555;50.952;-0.120;2023-06-22T07:19:27;11.75;;;7.70;;
61393;SDS011;48555;50.952;-0.120;2023-06-22T07:21:53;11.75;;;7.70;;
61393;SDS011;48555;50.952;-0.120;2023-06-22T07:24:19;11.30;;;8.30;;
61393;SDS011;48555;50.952;-0.120;2023-06-22T07:26:48;10.70;;;7.82;;
61393;SDS011;48555;50.952;-0.120;2023-06-22T07:29:15;12.65;;;7.80;;
61393;SDS011;48555;50.952;-0.120;2023-06-22T07:31:42;11.35;;;8.13;;
61393;SDS011;48555;50.952;-0.120;2023-06-22T07:34:07;10.80;;;7.80;;
61393;SDS011;48555;50.952;-0.120;2023-06-22T07:36:32;11.30;;;7.97;;
61393;SDS011;48555;50.952;-0.120;2023-06-22T07:38:59;10.13;;;7.13;;
61393;SDS011;48555;50.952;-0.120;2023-06-22T07:41:24;11.02;;;7.40;;
61393;SDS011;48555;50.952;-0.120;2023-06-22T07:43:50;12.75;;;8.30;;
61393;SDS011;48555;50.952;-0.120;2023-06-22T07:46:16;10.00;;;7.22;;
61393;SDS011;48555;50.952;-0.120;2023-06-22T07:48:41;10.15;;;7.45;;
61393;SDS011;48555;50.952;-0.120;2023-06-22T07:51:08;10.75;;;6.60;;
61393;SDS011;48555;50.952;-0.120;2023-06-22T07:53:33;9.32;;;6.55;;
61393;SDS011;48555;50.952;-0.120;2023-06-22T07:55:59;9.93;;;6.72;;
61393;SDS011;48555;50.952;-0.120;2023-06-22T07:58:24;10.18;;;6.53;;
61393;SDS011;48555;50.952;-0.120;2023-06-22T08:00:49;9.20;;;6.38;;
61393;SDS011;48555;50.952;-0.120;2023-06-22T08:03:15;9.20;;;6.38;;
61393;SDS011;48555;50.952;-0.120;2023-06-22T08:05:40;10.93;;;6.95;;
61393;SDS011;48555;50.952;-0.120;2023-06-22T08:08:06;10.23;;;6.38;;
61393;SDS011;48555;50.952;-0.120;2023-06-22T08:10:31;9.70;;;6.20;;
61393;SDS011;48555;50.952;-0.120;2023-06-22T08:12:56;8.80;;;5.68;;
61393;SDS011;48555;50.952;-0.120;2023-06-22T08:15:22;8.80;;;5.90;;
61393;SDS011;48555;50.952;-0.120;2023-06-22T08:17:47;10.07;;;5.90;;
61393;SDS011;48555;50.952;-0.120;2023-06-22T08:20:12;8.55;;;5.63;;
61393;SDS011;48555;50.952;-0.120;2023-06-22T08:22:38;8.85;;;5.85;;
61393;SDS011;48555;50.952;-0.120;2023-06-22T08:25:04;8.93;;;6.18;;
61393;SDS011;48555;50.952;-0.120;2023-06-22T08:27:31;7.85;;;5.80;;
61393;SDS011;48555;50.952;-0.120;2023-06-22T08:29:57;7.10;;;5.55;;
61393;SDS011;48555;50.952;-0.120;2023-06-22T08:32:24;7.40;;;5.60;;
61393;SDS011;48555;50.952;-0.120;2023-06-22T08:34:51;8.07;;;5.70;;
61393;SDS011;48555;50.952;-0.120;2023-06-22T08:37:17;8.35;;;6.00;;
61393;SDS011;48555;50.952;-0.120;2023-06-22T08:39:42;8.43;;;5.60;;
61393;SDS011;48555;50.952;-0.120;2023-06-22T08:42:08;7.38;;;5.28;;
61393;SDS011;48555;50.952;-0.120;2023-06-22T08:44:33;7.25;;;5.40;;
61393;SDS011;48555;50.952;-0.120;2023-06-22T08:46:58;7.22;;;5.35;;
61393;SDS011;48555;50.952;-0.120;2023-06-22T08:49:24;9.57;;;6.25;;
61393;SDS011;48555;50.952;-0.120;2023-06-22T08:51:49;6.72;;;5.30;;
61393;SDS011;48555;50.952;-0.120;2023-06-22T08:54:17;8.13;;;5.90;;
61393;SDS011;48555;50.952;-0.120;2023-06-22T08:56:42;7.40;;;5.47;;
61393;SDS011;48555;50.952;-0.120;2023-06-22T08:59:09;7.15;;;5.13;;
61393;SDS011;48555;50.952;-0.120;2023-06-22T09:01:34;8.43;;;5.13;;
61393;SDS011;48555;50.952;-0.120;2023-06-22T09:03:59;7.88;;;5.20;;
61393;SDS011;48555;50.952;-0.120;2023-06-22T09:06:25;6.57;;;5.20;;
61393;SDS011;48555;50.952;-0.120;2023-06-22T09:08:51;6.90;;;4.25;;
61393;SDS011;48555;50.952;-0.120;2023-06-22T09:11:16;6.68;;;4.60;;
61393;SDS011;48555;50.952;-0.120;2023-06-22T09:13:42;7.05;;;5.15;;
61393;SDS011;48555;50.952;-0.120;2023-06-22T09:16:07;7.78;;;4.55;;
61393;SDS011;48555;50.952;-0.120;2023-06-22T09:18:35;8.80;;;5.65;;
61393;SDS011;48555;50.952;-0.120;2023-06-22T09:21:01;7.88;;;4.97;;
61393;SDS011;48555;50.952;-0.120;2023-06-22T09:23:27;6.30;;;4.60;;
61393;SDS011;48555;50.952;-0.120;2023-06-22T09:25:52;6.25;;;4.20;;
61393;SDS011;48555;50.952;-0.120;2023-06-22T09:28:18;7.57;;;4.60;;
61393;SDS011;48555;50.952;-0.120;2023-06-22T09:30:43;7.47;;;4.32;;
61393;SDS011;48555;50.952;-0.120;2023-06-22T09:33:09;7.65;;;5.03;;
61393;SDS011;48555;50.952;-0.120;2023-06-22T09:35:35;6.13;;;4.28;;
61393;SDS011;48555;50.952;-0.120;2023-06-22T09:38:00;6.85;;;4.60;;
61393;SDS011;48555;50.952;-0.120;2023-06-22T09:40:25;7.65;;;4.25;;
61393;SDS011;48555;50.952;-0.120;2023-06-22T09:42:51;6.70;;;4.57;;
61393;SDS011;48555;50.952;-0.120;2023-06-22T09:45:16;5.72;;;4.13;;
61393;SDS011;48555;50.952;-0.120;2023-06-22T09:47:41;6.03;;;4.35;;
61393;SDS011;48555;50.952;-0.120;2023-06-22T09:50:07;7.63;;;4.88;;
61393;SDS011;48555;50.952;-0.120;2023-06-22T09:52:33;6.43;;;4.30;;
61393;SDS011;48555;50.952;-0.120;2023-06-22T09:54:59;6.65;;;5.07;;
61393;SDS011;48555;50.952;-0.120;2023-06-22T09:57:24;8.60;;;4.72;;
61393;SDS011;48555;50.952;-0.120;2023-06-22T09:59:49;6.88;;;4.47;;
61393;SDS011;48555;50.952;-0.120;2023-06-22T10:02:15;7.00;;;4.25;;
61393;SDS011;48555;50.952;-0.120;2023-06-22T10:04:40;6.70;;;4.05;;
61393;SDS011;48555;50.952;-0.120;2023-06-22T10:07:05;6.90;;;3.88;;
61393;SDS011;48555;50.952;-0.120;2023-06-22T10:09:31;6.40;;;3.53;;
61393;SDS011;48555;50.952;-0.120;2023-06-22T10:11:56;6.72;;;3.63;;
61393;SDS011;48555;50.952;-0.120;2023-06-22T10:14:22;6.07;;;3.47;;
61393;SDS011;48555;50.952;-0.120;2023-06-22T10:16:48;6.07;;;3.33;;
61393;SDS011;48555;50.952;-0.120;2023-06-22T10:19:13;5.88;;;3.53;;
61393;SDS011;48555;50.952;-0.120;2023-06-22T10:21:38;4.35;;;2.83;;
61393;SDS011;48555;50.952;-0.120;2023-06-22T10:24:04;6.25;;;3.10;;
61393;SDS011;48555;50.952;-0.120;2023-06-22T10:26:33;5.75;;;3.38;;
61393;SDS011;48555;50.952;-0.120;2023-06-22T10:28:59;4.78;;;3.05;;
61393;SDS011;48555;50.952;-0.120;2023-06-22T10:31:25;4.93;;;2.88;;
61393;SDS011;48555;50.952;-0.120;2023-06-22T10:33:50;4.05;;;2.70;;
61393;SDS011;48555;50.952;-0.120;2023-06-22T10:36:15;4.60;;;2.90;;
61393;SDS011;48555;50.952;-0.120;2023-06-22T10:38:41;4.78;;;3.20;;
61393;SDS011;48555;50.952;-0.120;2023-06-22T10:41:06;4.95;;;3.35;;
61393;SDS011;48555;50.952;-0.120;2023-06-22T10:43:32;4.82;;;3.25;;
61393;SDS011;48555;50.952;-0.120;2023-06-22T10:45:57;4.57;;;2.90;;
61393;SDS011;48555;50.952;-0.120;2023-06-22T10:48:23;6.88;;;3.03;;
61393;SDS011;48555;50.952;-0.120;2023-06-22T10:50:48;5.20;;;2.95;;
61393;SDS011;48555;50.952;-0.120;2023-06-22T10:53:13;5.28;;;3.20;;
61393;SDS011;48555;50.952;-0.120;2023-06-22T10:55:38;5.75;;;3.28;;
61393;SDS011;48555;50.952;-0.120;2023-06-22T10:58:04;5.68;;;3.25;;
61393;SDS011;48555;50.952;-0.120;2023-06-22T11:00:29;5.05;;;3.30;;
61393;SDS011;48555;50.952;-0.120;2023-06-22T11:02:54;5.20;;;3.47;;
61393;SDS011;48555;50.952;-0.120;2023-06-22T11:05:20;5.70;;;3.90;;
61393;SDS011;48555;50.952;-0.120;2023-06-22T11:07:45;5.93;;;3.33;;
61393;SDS011;48555;50.952;-0.120;2023-06-22T11:10:11;6.38;;;3.47;;
61393;SDS011;48555;50.952;-0.120;2023-06-22T11:12:37;5.85;;;3.70;;
61393;SDS011;48555;50.952;-0.120;2023-06-22T11:15:02;5.45;;;3.70;;
61393;SDS011;48555;50.952;-0.120;2023-06-22T11:17:28;5.20;;;3.47;;
61393;SDS011;48555;50.952;-0.120;2023-06-22T11:19:53;5.43;;;3.50;;
61393;SDS011;48555;50.952;-0.120;2023-06-22T11:22:19;6.10;;;3.53;;
61393;SDS011;48555;50.952;-0.120;2023-06-22T11:24:44;5.15;;;3.40;;
61393;SDS011;48555;50.952;-0.120;2023-06-22T11:27:09;6.20;;;3.60;;
61393;SDS011;48555;50.952;-0.120;2023-06-22T11:29:35;6.38;;;4.10;;
61393;SDS011;48555;50.952;-0.120;2023-06-22T11:32:00;6.03;;;4.25;;
61393;SDS011;48555;50.952;-0.120;2023-06-22T11:34:26;6.80;;;4.05;;
61393;SDS011;48555;50.952;-0.120;2023-06-22T11:36:53;5.47;;;3.90;;
61393;SDS011;48555;50.952;-0.120;2023-06-22T11:39:18;6.38;;;3.88;;
61393;SDS011;48555;50.952;-0.120;2023-06-22T11:41:43;6.47;;;3.55;;
61393;SDS011;48555;50.952;-0.120;2023-06-22T11:44:09;5.05;;;3.72;;
61393;SDS011;48555;50.952;-0.120;2023-06-22T11:46:34;6.28;;;3.75;;
61393;SDS011;48555;50.952;-0.120;2023-06-22T11:48:59;6.63;;;3.38;;
61393;SDS011;48555;50.952;-0.120;2023-06-22T11:51:25;6.82;;;3.40;;
61393;SDS011;48555;50.952;-0.120;2023-06-22T11:53:50;5.78;;;3.38;;
61393;SDS011;48555;50.952;-0.120;2023-06-22T11:56:16;4.95;;;3.30;;
61393;SDS011;48555;50.952;-0.120;2023-06-22T11:58:41;6.13;;;3.33;;
61393;SDS011;48555;50.952;-0.120;2023-06-22T12:01:06;5.68;;;3.30;;
61393;SDS011;48555;50.952;-0.120;2023-06-22T12:03:32;6.45;;;3.53;;
61393;SDS011;48555;50.952;-0.120;2023-06-22T12:05:57;4.93;;;3.28;;
61393;SDS011;48555;50.952;-0.120;2023-06-22T12:08:22;4.85;;;3.10;;
61393;SDS011;48555;50.952;-0.120;2023-06-22T12:10:49;5.75;;;3.35;;
61393;SDS011;48555;50.952;-0.120;2023-06-22T12:13:14;5.30;;;3.33;;
61393;SDS011;48555;50.952;-0.120;2023-06-22T12:15:40;5.93;;;3.17;;
61393;SDS011;48555;50.952;-0.120;2023-06-22T12:18:05;5.03;;;3.50;;
61393;SDS011;48555;50.952;-0.120;2023-06-22T12:20:31;5.20;;;3.40;;
61393;SDS011;48555;50.952;-0.120;2023-06-22T12:22:57;5.57;;;3.20;;
61393;SDS011;48555;50.952;-0.120;2023-06-22T12:25:23;5.32;;;3.28;;
61393;SDS011;48555;50.952;-0.120;2023-06-22T12:27:48;5.22;;;2.95;;
61393;SDS011;48555;50.952;-0.120;2023-06-22T12:30:15;5.53;;;3.47;;
61393;SDS011;48555;50.952;-0.120;2023-06-22T12:32:41;4.75;;;2.88;;
61393;SDS011;48555;50.952;-0.120;2023-06-22T12:35:06;5.07;;;3.33;;
61393;SDS011;48555;50.952;-0.120;2023-06-22T12:37:36;4.82;;;3.20;;
61393;SDS011;48555;50.952;-0.120;2023-06-22T12:40:02;6.18;;;3.40;;
61393;SDS011;48555;50.952;-0.120;2023-06-22T12:42:28;5.55;;;3.30;;
61393;SDS011;48555;50.952;-0.120;2023-06-22T12:44:54;5.57;;;3.10;;
61393;SDS011;48555;50.952;-0.120;2023-06-22T12:47:19;5.32;;;3.20;;
61393;SDS011;48555;50.952;-0.120;2023-06-22T12:49:45;5.03;;;3.22;;
61393;SDS011;48555;50.952;-0.120;2023-06-22T12:52:10;6.13;;;2.97;;
61393;SDS011;48555;50.952;-0.120;2023-06-22T12:54:38;5.65;;;2.95;;
61393;SDS011;48555;50.952;-0.120;2023-06-22T12:57:04;4.13;;;2.60;;
61393;SDS011;48555;50.952;-0.120;2023-06-22T12:59:30;4.72;;;2.88;;
61393;SDS011;48555;50.952;-0.120;2023-06-22T13:01:55;4.57;;;2.83;;
61393;SDS011;48555;50.952;-0.120;2023-06-22T13:04:20;4.50;;;2.63;;
61393;SDS011;48555;50.952;-0.120;2023-06-22T13:06:46;4.45;;;2.60;;
61393;SDS011;48555;50.952;-0.120;2023-06-22T13:09:13;4.53;;;2.58;;
61393;SDS011;48555;50.952;-0.120;2023-06-22T13:11:39;4.75;;;2.70;;
61393;SDS011;48555;50.952;-0.120;2023-06-22T13:14:04;4.45;;;2.70;;
61393;SDS011;48555;50.952;-0.120;2023-06-22T13:16:29;3.85;;;2.72;;
61393;SDS011;48555;50.952;-0.120;2023-06-22T13:18:55;4.55;;;2.42;;
61393;SDS011;48555;50.952;-0.120;2023-06-22T13:21:20;4.80;;;2.88;;
61393;SDS011;48555;50.952;-0.120;2023-06-22T13:23:45;5.35;;;3.05;;
61393;SDS011;48555;50.952;-0.120;2023-06-22T13:26:10;5.72;;;3.00;;
61393;SDS011;48555;50.952;-0.120;2023-06-22T13:28:36;3.85;;;2.70;;
61393;SDS011;48555;50.952;-0.120;2023-06-22T13:31:01;3.97;;;2.78;;
61393;SDS011;48555;50.952;-0.120;2023-06-22T13:33:26;5.43;;;2.90;;
61393;SDS011;48555;50.952;-0.120;2023-06-22T13:35:52;4.90;;;3.00;;
61393;SDS011;48555;50.952;-0.120;2023-06-22T13:38:17;5.25;;;2.88;;
61393;SDS011;48555;50.952;-0.120;2023-06-22T13:40:43;5.13;;;2.80;;
61393;SDS011;48555;50.952;-0.120;2023-06-22T13:43:08;4.40;;;2.80;;
61393;SDS011;48555;50.952;-0.120;2023-06-22T13:45:33;6.07;;;2.80;;
61393;SDS011;48555;50.952;-0.120;2023-06-22T13:47:59;4.30;;;2.75;;
61393;SDS011;48555;50.952;-0.120;2023-06-22T13:50:24;5.18;;;2.78;;
61393;SDS011;48555;50.952;-0.120;2023-06-22T13:52:50;4.80;;;2.83;;
61393;SDS011;48555;50.952;-0.120;2023-06-22T13:55:15;5.05;;;3.00;;
61393;SDS011;48555;50.952;-0.120;2023-06-22T13:57:41;5.65;;;2.72;;
61393;SDS011;48555;50.952;-0.120;2023-06-22T14:00:07;5.25;;;2.80;;
61393;SDS011;48555;50.952;-0.120;2023-06-22T14:02:33;4.47;;;2.72;;
61393;SDS011;48555;50.952;-0.120;2023-06-22T14:04:59;5.53;;;2.70;;
61393;SDS011;48555;50.952;-0.120;2023-06-22T14:07:24;5.07;;;2.88;;
61393;SDS011;48555;50.952;-0.120;2023-06-22T14:09:50;5.22;;;3.20;;
61393;SDS011;48555;50.952;-0.120;2023-06-22T14:12:15;4.60;;;3.10;;
61393;SDS011;48555;50.952;-0.120;2023-06-22T14:14:42;6.10;;;3.40;;
61393;SDS011;48555;50.952;-0.120;2023-06-22T14:17:08;6.03;;;3.13;;
61393;SDS011;48555;50.952;-0.120;2023-06-22T14:19:33;5.53;;;3.17;;
61393;SDS011;48555;50.952;-0.120;2023-06-22T14:21:59;10.75;;;3.53;;
61393;SDS011;48555;50.952;-0.120;2023-06-22T14:24:24;5.88;;;3.08;;
61393;SDS011;48555;50.952;-0.120;2023-06-22T14:26:49;4.35;;;2.70;;
61393;SDS011;48555;50.952;-0.120;2023-06-22T14:29:15;5.65;;;3.70;;